createdAt,value
2018-08-23T00:01:32.890Z,4.80
2018-08-23T00:06:27.565Z,5.10
2018-08-23T00:11:28.623Z,5.55
2018-08-23T00:16:33.557Z,4.78
2018-08-23T00:21:28.746Z,3.92
2018-08-23T00:26:23.434Z,4.22
2018-08-23T00:31:18.140Z,4.42
2018-08-23T00:36:12.827Z,4.45
2018-08-23T00:41:07.576Z,4.45
2018-08-23T00:46:06.287Z,4.30
2018-08-23T00:51:01.719Z,4.05
2018-08-23T00:56:21.783Z,3.60
2018-08-23T01:01:16.554Z,3.77
2018-08-23T01:06:11.277Z,3.40
2018-08-23T01:11:07.043Z,3.00
2018-08-23T01:16:01.811Z,3.70
2018-08-23T01:20:56.603Z,3.37
2018-08-23T01:25:51.712Z,3.75
2018-08-23T01:30:47.145Z,3.90
2018-08-23T01:35:43.541Z,3.87
2018-08-23T01:40:38.037Z,3.47
2018-08-23T01:45:32.536Z,3.83
2018-08-23T01:50:27.613Z,4.00
2018-08-23T01:55:23.224Z,3.40
2018-08-23T02:00:34.463Z,4.00
2018-08-23T02:05:29.040Z,3.77
2018-08-23T02:10:23.555Z,4.35
2018-08-23T02:15:18.129Z,4.00
2018-08-23T02:20:12.705Z,3.85
2018-08-23T02:25:07.868Z,3.80
2018-08-23T02:30:02.417Z,4.10
2018-08-23T02:35:07.008Z,4.75
2018-08-23T02:40:01.826Z,5.12
2018-08-23T02:44:58.510Z,5.00
2018-08-23T02:49:53.256Z,5.53
2018-08-23T02:54:47.979Z,4.22
2018-08-23T02:59:42.492Z,5.00
2018-08-23T03:04:36.956Z,4.15
2018-08-23T03:09:35.721Z,4.67
2018-08-23T03:14:30.840Z,4.60
2018-08-23T03:19:25.338Z,4.75
2018-08-23T03:24:21.675Z,5.10
2018-08-23T03:29:16.182Z,4.92
2018-08-23T03:34:10.745Z,4.80
2018-08-23T03:39:08.145Z,4.33
2018-08-23T03:44:02.633Z,4.20
2018-08-23T03:49:04.101Z,3.87
2018-08-23T03:54:00.553Z,4.20
2018-08-23T03:58:55.055Z,3.80
2018-08-23T04:03:49.797Z,3.92
2018-08-23T04:08:45.957Z,4.20
2018-08-23T04:13:40.460Z,3.70
2018-08-23T04:18:34.940Z,4.10
2018-08-23T04:23:29.469Z,4.00
2018-08-23T04:28:23.973Z,4.15
2018-08-23T04:33:18.548Z,4.25
2018-08-23T04:38:13.049Z,4.60
2018-08-23T04:43:07.686Z,4.42
2018-08-23T04:48:05.183Z,4.75
2018-08-23T04:52:59.689Z,4.92
2018-08-23T04:57:54.368Z,4.92
2018-08-23T05:02:48.893Z,5.08
2018-08-23T05:07:43.422Z,4.80
2018-08-23T05:12:37.908Z,5.03
2018-08-23T05:17:32.612Z,4.83
2018-08-23T05:22:27.119Z,5.70
2018-08-23T05:27:22.364Z,5.22
2018-08-23T05:32:18.938Z,4.08
2018-08-23T05:37:13.329Z,4.47
2018-08-23T05:42:07.713Z,4.80
2018-08-23T05:47:02.132Z,4.20
2018-08-23T05:51:59.620Z,4.70
2018-08-23T05:56:54.060Z,4.47
2018-08-23T06:01:48.904Z,4.62
2018-08-23T06:06:43.379Z,4.35
2018-08-23T06:11:37.932Z,5.37
2018-08-23T06:16:44.289Z,4.58
2018-08-23T06:21:38.676Z,5.10
2018-08-23T06:26:44.484Z,4.42
2018-08-23T06:31:59.890Z,4.97
2018-08-23T06:36:54.936Z,4.90
2018-08-23T06:42:01.054Z,4.97
2018-08-23T06:46:55.460Z,4.75
2018-08-23T06:52:07.036Z,4.97
2018-08-23T06:57:01.550Z,5.10
2018-08-23T07:01:56.125Z,4.65
2018-08-23T07:06:53.931Z,4.90
2018-08-23T07:11:48.452Z,5.00
2018-08-23T07:16:44.732Z,4.60
2018-08-23T07:21:39.225Z,4.80
2018-08-23T07:26:33.723Z,4.47
2018-08-23T07:31:28.126Z,4.47
2018-08-23T07:36:31.125Z,4.28
2018-08-23T07:41:25.708Z,4.40
2018-08-23T07:46:22.699Z,4.65
2018-08-23T07:51:24.970Z,5.03
2018-08-23T07:56:23.538Z,4.80
2018-08-23T08:01:17.948Z,5.00
2018-08-23T08:06:28.099Z,5.25
2018-08-23T08:11:22.604Z,4.85
2018-08-23T08:16:19.344Z,4.95
2018-08-23T08:21:18.771Z,4.67
2018-08-23T08:26:13.193Z,5.47
2018-08-23T08:31:07.959Z,4.40
2018-08-23T08:36:04.703Z,4.50
2018-08-23T08:41:00.644Z,4.97
2018-08-23T08:46:01.045Z,4.70
2018-08-23T08:51:22.197Z,4.85
2018-08-23T08:56:18.736Z,4.75
2018-08-23T09:01:13.131Z,5.25
2018-08-23T09:06:11.923Z,5.15
2018-08-23T09:11:07.904Z,5.45
2018-08-23T09:16:09.183Z,4.72
2018-08-23T09:21:04.342Z,5.20
2018-08-23T09:26:00.796Z,5.08
2018-08-23T09:30:58.048Z,5.03
2018-08-23T09:36:01.068Z,4.67
2018-08-23T09:40:56.807Z,5.03
2018-08-23T09:45:52.117Z,4.30
2018-08-23T09:50:49.125Z,4.75
2018-08-23T09:55:47.204Z,4.92
2018-08-23T10:00:46.964Z,4.62
2018-08-23T10:05:48.761Z,5.25
2018-08-23T10:10:48.346Z,4.90
2018-08-23T10:15:45.920Z,4.92
2018-08-23T10:21:01.337Z,5.30
2018-08-23T10:25:58.634Z,5.30
2018-08-23T10:30:53.489Z,5.22
2018-08-23T10:35:49.224Z,5.28
2018-08-23T10:46:48.724Z,5.45
2018-08-23T10:51:43.246Z,5.72
2018-08-23T10:56:39.860Z,5.00
2018-08-23T11:01:34.293Z,5.30
2018-08-23T11:06:28.750Z,5.42
2018-08-23T11:11:37.424Z,5.12
2018-08-23T11:16:41.041Z,6.00
2018-08-23T11:21:37.998Z,5.30
2018-08-23T11:26:33.217Z,6.05
2018-08-23T11:31:28.612Z,5.65
2018-08-23T11:36:23.201Z,5.53
2018-08-23T11:41:17.855Z,5.42
2018-08-23T11:46:14.865Z,5.80
2018-08-23T11:51:09.317Z,5.25
2018-08-23T11:56:04.589Z,5.55
2018-08-23T12:01:04.242Z,5.37
2018-08-23T12:05:58.700Z,5.60
2018-08-23T12:10:54.328Z,5.37
2018-08-23T12:15:48.966Z,5.33
2018-08-23T12:20:43.385Z,5.40
2018-08-23T12:25:37.803Z,4.90
2018-08-23T12:30:32.453Z,5.10
2018-08-23T12:35:27.830Z,5.47
2018-08-23T12:40:27.869Z,5.50
2018-08-23T12:45:22.332Z,5.55
2018-08-23T12:50:16.931Z,5.12
2018-08-23T12:55:11.688Z,5.33
2018-08-23T13:00:06.537Z,6.20
2018-08-23T13:05:01.081Z,5.05
2018-08-23T13:09:56.326Z,5.30
2018-08-23T13:14:50.781Z,5.53
2018-08-23T13:19:45.545Z,5.65
2018-08-23T13:24:45.172Z,5.87
2018-08-23T13:29:39.753Z,5.35
2018-08-23T13:34:34.188Z,5.78
2018-08-23T13:39:28.679Z,5.62
2018-08-23T13:44:23.890Z,5.75
2018-08-23T13:49:18.399Z,4.78
2018-08-23T13:54:13.781Z,4.67
2018-08-23T13:59:08.414Z,5.62
2018-08-23T14:04:02.836Z,6.00
2018-08-23T14:08:57.442Z,7.30
2018-08-23T14:13:52.019Z,8.73
2018-08-23T14:18:54.791Z,8.18
2018-08-23T14:23:49.494Z,7.67
2018-08-23T14:28:44.041Z,8.15
2018-08-23T14:33:38.577Z,8.80
2018-08-23T14:38:33.346Z,8.75
2018-08-23T14:43:28.290Z,8.48
2018-08-23T14:48:22.941Z,9.20
2018-08-23T14:53:23.664Z,8.55
2018-08-23T14:58:18.246Z,7.22
2018-08-23T15:03:13.088Z,9.70
2018-08-23T15:08:12.850Z,2.72
2018-08-23T15:13:07.678Z,5.47
2018-08-23T15:18:03.178Z,6.22
2018-08-23T15:22:58.254Z,6.50
2018-08-23T15:27:55.123Z,6.05
2018-08-23T15:32:50.006Z,5.72
2018-08-23T15:37:45.230Z,5.50
2018-08-23T15:42:39.929Z,6.40
2018-08-23T15:47:34.519Z,6.33
2018-08-23T15:52:29.252Z,6.05
2018-08-23T15:57:23.897Z,6.70
2018-08-23T16:02:18.425Z,6.77
2018-08-23T16:07:13.325Z,6.40
2018-08-23T16:12:07.862Z,13.60
2018-08-23T16:17:07.827Z,7.13
2018-08-23T16:22:13.871Z,7.10
2018-08-23T16:27:19.752Z,7.55
2018-08-23T16:32:28.525Z,7.80
2018-08-23T16:37:23.433Z,7.63
2018-08-23T16:42:28.115Z,5.77
2018-08-23T16:47:36.338Z,6.30
2018-08-23T16:52:31.689Z,7.33
2018-08-23T16:57:26.398Z,7.30
2018-08-23T17:02:20.947Z,7.83
2018-08-23T17:07:16.733Z,6.62
2018-08-23T17:12:11.520Z,6.80
2018-08-23T17:17:11.298Z,7.00
2018-08-23T17:22:05.905Z,6.95
2018-08-23T17:27:00.424Z,7.17
2018-08-23T17:31:55.541Z,6.62
2018-08-23T17:36:50.454Z,6.00
2018-08-23T17:41:45.535Z,6.83
2018-08-23T17:46:40.153Z,6.22
2018-08-23T17:51:34.725Z,6.33
2018-08-23T17:56:29.309Z,6.12
2018-08-23T18:01:23.849Z,7.97
2018-08-23T18:06:18.444Z,7.80
2018-08-23T18:11:13.081Z,10.17
2018-08-23T18:16:13.139Z,7.07
2018-08-23T18:21:07.711Z,7.87
2018-08-23T18:26:02.485Z,7.50
2018-08-23T18:30:57.140Z,7.87
2018-08-23T18:35:51.806Z,7.90
2018-08-23T18:40:46.336Z,7.50
2018-08-23T18:45:40.983Z,6.63
2018-08-23T18:50:35.817Z,7.03
2018-08-23T18:55:30.771Z,7.50
2018-08-23T19:00:25.710Z,7.67
2018-08-23T19:05:20.314Z,7.83
2018-08-23T19:10:15.661Z,6.87
2018-08-23T19:15:10.313Z,6.97
2018-08-23T19:20:05.619Z,7.00
2018-08-23T19:25:00.550Z,7.07
2018-08-23T19:29:55.193Z,7.53
2018-08-23T19:34:49.944Z,6.80
2018-08-23T19:39:45.028Z,6.43
2018-08-23T19:44:44.869Z,6.90
2018-08-23T19:49:44.902Z,7.07
2018-08-23T19:54:40.128Z,7.60
2018-08-23T19:59:34.910Z,9.60
2018-08-23T20:04:30.118Z,6.80
2018-08-23T20:09:24.929Z,7.03
2018-08-23T20:14:19.902Z,6.37
2018-08-23T20:19:14.533Z,6.37
2018-08-23T20:24:09.224Z,6.13
2018-08-23T20:29:03.998Z,6.63
2018-08-23T20:33:58.640Z,7.50
2018-08-23T20:38:53.356Z,7.30
2018-08-23T20:43:48.101Z,7.60
2018-08-23T20:48:42.846Z,6.67
2018-08-23T20:53:37.513Z,6.90
2018-08-23T20:58:32.125Z,6.40
2018-08-23T21:03:26.822Z,6.40
2018-08-23T21:08:21.672Z,7.53
2018-08-23T21:13:16.381Z,7.43
2018-08-23T21:18:12.280Z,7.73
2018-08-23T21:23:07.138Z,7.57
2018-08-23T21:28:01.826Z,7.63
2018-08-23T21:32:56.499Z,7.80
2018-08-23T21:37:51.263Z,9.13
2018-08-23T21:42:46.026Z,8.37
2018-08-23T21:47:40.753Z,10.77
2018-08-23T21:52:35.494Z,10.07
2018-08-23T21:57:30.417Z,9.60
2018-08-23T22:02:25.181Z,8.87
2018-08-23T22:07:20.065Z,9.60
2018-08-23T22:12:14.898Z,9.70
2018-08-23T22:17:09.587Z,9.87
2018-08-23T22:22:04.189Z,9.73
2018-08-23T22:26:58.781Z,9.57
2018-08-23T22:31:54.381Z,8.47
2018-08-23T22:36:49.090Z,9.27
2018-08-23T22:41:43.766Z,8.67
2018-08-23T22:46:38.545Z,8.87
2018-08-23T22:51:33.273Z,7.63
2018-08-23T22:56:27.914Z,7.07
2018-08-23T23:01:22.546Z,6.20
2018-08-23T23:06:17.092Z,6.13
2018-08-23T23:11:11.641Z,5.27
2018-08-23T23:16:06.270Z,5.90
2018-08-23T23:21:00.832Z,5.20
2018-08-23T23:25:55.462Z,5.33
2018-08-23T23:30:50.012Z,5.30
2018-08-23T23:35:44.620Z,4.93
2018-08-23T23:40:39.145Z,4.63
2018-08-23T23:45:33.705Z,4.90
2018-08-23T23:50:28.204Z,4.83
2018-08-23T23:55:22.809Z,4.30
